createdAt,value
2019-02-19T00:03:40.182Z,5.20
2019-02-19T00:06:19.820Z,5.40
2019-02-19T00:09:00.046Z,5.40
2019-02-19T00:14:30.507Z,5.60
2019-02-19T00:17:12.601Z,5.50
2019-02-19T00:19:52.576Z,5.70
2019-02-19T00:22:32.716Z,5.60
2019-02-19T00:27:57.132Z,5.60
2019-02-19T00:30:37.309Z,5.70
2019-02-19T00:33:17.637Z,5.90
2019-02-19T00:35:57.986Z,5.80
2019-02-19T00:38:37.917Z,5.80
2019-02-19T00:41:18.137Z,5.80
2019-02-19T00:43:58.159Z,6.00
2019-02-19T00:46:38.147Z,6.30
2019-02-19T00:49:18.239Z,6.10
2019-02-19T00:51:45.975Z,6.30
2019-02-19T00:54:33.005Z,6.20
2019-02-19T00:57:13.066Z,6.30
2019-02-19T00:59:52.996Z,6.40
2019-02-19T01:02:34.354Z,6.30
2019-02-19T01:05:14.178Z,6.10
2019-02-19T01:07:55.010Z,6.20
2019-02-19T01:10:22.909Z,6.00
2019-02-19T01:13:10.794Z,5.90
2019-02-19T01:15:58.069Z,5.90
2019-02-19T01:18:38.189Z,5.90
2019-02-19T01:21:18.564Z,5.70
2019-02-19T01:27:11.629Z,5.80
2019-02-19T01:29:51.453Z,5.90
2019-02-19T01:32:31.453Z,5.90
2019-02-19T01:35:11.354Z,5.90
2019-02-19T01:37:51.317Z,5.70
2019-02-19T01:40:31.471Z,5.80
2019-02-19T01:43:11.417Z,5.60
2019-02-19T01:45:51.986Z,5.60
2019-02-19T01:48:31.812Z,5.30
2019-02-19T01:51:12.142Z,5.40
2019-02-19T01:53:52.372Z,5.20
2019-02-19T01:56:32.581Z,5.00
2019-02-19T01:59:00.181Z,4.90
2019-02-19T02:01:47.279Z,4.80
2019-02-19T02:07:22.718Z,4.70
2019-02-19T02:09:52.340Z,4.40
2019-02-19T02:12:44.025Z,4.40
2019-02-19T02:15:31.172Z,4.50
2019-02-19T02:18:11.108Z,4.50
2019-02-19T02:20:51.502Z,4.60
2019-02-19T02:23:31.052Z,4.80
2019-02-19T02:26:11.196Z,4.60
2019-02-19T02:28:51.220Z,4.70
2019-02-19T02:31:31.408Z,4.80
2019-02-19T02:34:11.656Z,4.70
2019-02-19T02:36:39.281Z,4.80
2019-02-19T02:39:26.310Z,4.70
2019-02-19T02:42:06.690Z,4.70
2019-02-19T02:44:47.219Z,4.60
2019-02-19T02:47:27.290Z,4.40
2019-02-19T02:50:08.072Z,4.60
2019-02-19T02:52:48.845Z,4.60
2019-02-19T02:55:29.285Z,4.70
2019-02-19T02:58:09.604Z,4.40
2019-02-19T03:00:49.874Z,4.60
2019-02-19T03:03:29.541Z,4.60
2019-02-19T03:06:15.168Z,4.60
2019-02-19T03:08:54.812Z,4.70
2019-02-19T03:11:35.434Z,4.60
2019-02-19T03:14:15.195Z,4.60
2019-02-19T03:16:55.321Z,4.40
2019-02-19T03:19:35.323Z,4.60
2019-02-19T03:22:15.457Z,4.70
2019-02-19T03:24:55.680Z,5.00
2019-02-19T03:27:35.567Z,5.10
2019-02-19T03:30:03.773Z,5.10
2019-02-19T03:32:50.922Z,5.20
2019-02-19T03:35:37.931Z,5.30
2019-02-19T03:38:18.211Z,5.40
2019-02-19T03:40:58.750Z,5.20
2019-02-19T03:43:26.338Z,5.20
2019-02-19T03:46:13.356Z,5.20
2019-02-19T03:49:00.388Z,5.30
2019-02-19T03:51:41.702Z,5.20
2019-02-19T03:54:21.845Z,4.90
2019-02-19T03:57:02.035Z,5.00
2019-02-19T03:59:42.311Z,4.60
2019-02-19T04:02:22.879Z,4.60
2019-02-19T04:05:02.563Z,4.70
2019-02-19T04:07:42.715Z,4.60
2019-02-19T04:10:23.781Z,4.80
2019-02-19T04:13:03.800Z,4.80
2019-02-19T04:15:43.866Z,5.20
2019-02-19T04:18:24.002Z,5.40
2019-02-19T04:21:04.185Z,5.30
2019-02-19T04:26:26.280Z,5.70
2019-02-19T04:29:06.392Z,6.10
2019-02-19T04:31:47.070Z,5.70
2019-02-19T04:34:26.602Z,5.60
2019-02-19T04:40:08.299Z,5.50
2019-02-19T04:42:48.346Z,5.30
2019-02-19T04:45:28.459Z,5.30
2019-02-19T04:48:08.692Z,5.10
2019-02-19T04:50:48.664Z,5.00
2019-02-19T04:53:28.856Z,4.90
2019-02-19T04:56:08.942Z,5.00
2019-02-19T04:58:48.825Z,4.90
2019-02-19T05:01:29.228Z,5.10
2019-02-19T05:04:08.996Z,5.00
2019-02-19T05:06:50.129Z,4.90
2019-02-19T05:09:30.149Z,5.00
2019-02-19T05:12:10.294Z,4.60
2019-02-19T05:14:50.478Z,4.70
2019-02-19T05:17:30.452Z,5.00
2019-02-19T05:20:10.554Z,5.20
2019-02-19T05:22:50.489Z,5.00
2019-02-19T05:25:31.245Z,5.10
2019-02-19T05:28:10.882Z,5.20
2019-02-19T05:30:50.972Z,5.40
2019-02-19T05:33:31.209Z,5.20
2019-02-19T05:36:11.323Z,5.00
2019-02-19T05:38:51.456Z,4.90
2019-02-19T05:41:31.321Z,4.90
2019-02-19T05:44:11.293Z,4.90
2019-02-19T05:46:51.969Z,4.70
2019-02-19T05:49:31.740Z,4.70
2019-02-19T05:52:11.904Z,4.80
2019-02-19T05:54:52.090Z,5.10
2019-02-19T05:57:32.042Z,5.00
2019-02-19T06:00:13.109Z,4.70
2019-02-19T06:02:53.297Z,4.80
2019-02-19T06:05:33.566Z,4.70
2019-02-19T06:08:13.684Z,4.50
2019-02-19T06:10:41.711Z,4.70
2019-02-19T06:13:28.814Z,4.80
2019-02-19T06:16:09.316Z,4.90
2019-02-19T06:18:49.214Z,5.00
2019-02-19T06:21:29.442Z,4.80
2019-02-19T06:24:09.301Z,5.00
2019-02-19T06:26:49.459Z,5.00
2019-02-19T06:34:33.252Z,4.70
2019-02-19T06:37:20.691Z,4.70
2019-02-19T06:43:17.881Z,4.70
2019-02-19T06:45:57.717Z,4.50
2019-02-19T06:48:38.003Z,4.30
2019-02-19T06:51:18.085Z,4.30
2019-02-19T06:53:57.981Z,4.30
2019-02-19T06:56:38.189Z,4.40
2019-02-19T06:59:18.121Z,4.50
2019-02-19T07:02:07.743Z,4.80
2019-02-19T07:07:58.836Z,5.20
2019-02-19T07:10:38.866Z,5.50
2019-02-19T07:13:19.370Z,5.30
2019-02-19T07:15:59.865Z,5.60
2019-02-19T07:18:39.801Z,5.70
2019-02-19T07:21:20.065Z,5.70
2019-02-19T07:24:04.423Z,5.80
2019-02-19T07:26:42.512Z,5.80
2019-02-19T07:29:22.335Z,6.10
2019-02-19T07:32:02.829Z,6.10
2019-02-19T07:34:42.886Z,6.00
2019-02-19T07:37:23.330Z,5.90
2019-02-19T07:40:03.657Z,6.10
2019-02-19T07:42:43.496Z,6.20
2019-02-19T07:45:23.866Z,6.30
2019-02-19T07:48:03.742Z,6.30
2019-02-19T07:50:43.619Z,6.50
2019-02-19T07:53:23.901Z,7.10
2019-02-19T07:56:04.323Z,7.10
2019-02-19T07:58:44.274Z,7.70
2019-02-19T08:01:24.348Z,8.10
2019-02-19T08:04:04.300Z,8.60
2019-02-19T08:06:44.741Z,9.30
2019-02-19T08:09:24.406Z,9.40
2019-02-19T08:12:04.403Z,9.80
2019-02-19T08:14:44.608Z,9.80
2019-02-19T08:17:32.899Z,9.70
2019-02-19T08:20:15.371Z,9.70
2019-02-19T08:22:49.202Z,9.60
2019-02-19T08:25:20.012Z,9.40
2019-02-19T08:28:07.024Z,9.40
2019-02-19T08:30:34.953Z,9.40
2019-02-19T08:33:21.952Z,9.30
2019-02-19T08:36:01.956Z,9.30
2019-02-19T08:38:43.089Z,9.20
2019-02-19T08:41:23.332Z,9.30
2019-02-19T08:44:03.732Z,9.40
2019-02-19T08:46:43.905Z,9.70
2019-02-19T08:49:24.124Z,9.60
2019-02-19T08:52:04.284Z,9.60
2019-02-19T08:54:44.777Z,10.00
2019-02-19T08:57:24.621Z,10.20
2019-02-19T09:00:04.681Z,10.90
2019-02-19T09:02:44.861Z,11.60
2019-02-19T09:05:24.980Z,12.00
2019-02-19T09:08:05.013Z,12.10
2019-02-19T09:10:45.292Z,12.00
2019-02-19T09:13:25.161Z,11.90
2019-02-19T09:16:05.089Z,12.00
2019-02-19T09:18:45.211Z,11.70
2019-02-19T09:21:25.472Z,11.90
2019-02-19T09:24:09.489Z,12.20
2019-02-19T09:26:47.561Z,12.50
2019-02-19T09:29:27.632Z,13.00
2019-02-19T09:32:07.688Z,13.80
2019-02-19T09:34:47.824Z,14.20
2019-02-19T09:37:27.853Z,15.00
2019-02-19T09:40:08.094Z,15.30
2019-02-19T09:42:48.125Z,15.80
2019-02-19T09:45:28.544Z,16.00
2019-02-19T09:48:08.219Z,16.50
2019-02-19T09:50:48.444Z,16.50
2019-02-19T09:53:28.460Z,16.90
2019-02-19T09:56:08.470Z,17.20
2019-02-19T09:58:48.669Z,17.10
2019-02-19T10:01:28.743Z,17.40
2019-02-19T10:04:08.844Z,17.60
2019-02-19T10:06:48.880Z,17.90
2019-02-19T10:09:28.904Z,17.80
2019-02-19T10:12:09.092Z,18.30
2019-02-19T10:14:36.757Z,18.80
2019-02-19T10:17:23.804Z,18.80
2019-02-19T10:20:04.348Z,19.10
2019-02-19T10:22:44.528Z,19.60
2019-02-19T10:25:24.304Z,20.10
2019-02-19T10:28:04.511Z,20.10
2019-02-19T10:30:44.601Z,20.40
2019-02-19T10:33:24.535Z,20.80
2019-02-19T10:36:04.430Z,21.20
2019-02-19T10:38:44.873Z,21.50
2019-02-19T10:41:12.569Z,21.90
2019-02-19T10:43:59.594Z,21.70
2019-02-19T10:46:46.592Z,21.90
2019-02-19T10:49:27.101Z,21.60
2019-02-19T10:52:07.364Z,21.60
2019-02-19T10:54:47.516Z,21.60
2019-02-19T10:57:27.569Z,21.90
2019-02-19T11:00:07.960Z,22.00
2019-02-19T11:02:48.460Z,22.20
2019-02-19T11:05:28.545Z,21.90
2019-02-19T11:08:08.665Z,22.00
2019-02-19T11:13:43.033Z,22.10
2019-02-19T11:16:23.298Z,22.20
2019-02-19T11:22:16.270Z,22.70
2019-02-19T11:24:56.368Z,23.00
2019-02-19T11:27:36.472Z,23.40
2019-02-19T11:30:16.480Z,23.90
2019-02-19T11:32:44.209Z,24.10
2019-02-19T11:35:31.257Z,24.70
2019-02-19T11:38:09.376Z,25.40
2019-02-19T11:40:56.376Z,25.80
2019-02-19T11:43:37.220Z,26.50
2019-02-19T11:46:19.121Z,27.10
2019-02-19T11:48:59.352Z,27.70
2019-02-19T11:51:39.013Z,28.20
2019-02-19T11:54:19.303Z,28.90
2019-02-19T11:56:59.420Z,29.30
2019-02-19T11:59:39.213Z,29.70
2019-02-19T12:02:19.235Z,29.90
2019-02-19T12:04:59.390Z,30.30
2019-02-19T12:07:39.393Z,30.70
2019-02-19T12:10:19.632Z,31.10
2019-02-19T12:12:59.778Z,31.40
2019-02-19T12:15:39.982Z,31.80
2019-02-19T12:18:20.025Z,32.00
2019-02-19T12:21:00.096Z,32.30
2019-02-19T12:23:40.167Z,32.40
2019-02-19T12:26:20.284Z,32.40
2019-02-19T12:29:00.645Z,32.60
2019-02-19T12:31:40.676Z,32.30
2019-02-19T12:34:21.084Z,32.40
2019-02-19T12:37:01.017Z,32.50
2019-02-19T12:39:41.296Z,32.80
2019-02-19T12:42:21.312Z,32.80
2019-02-19T12:44:48.888Z,33.10
2019-02-19T12:47:35.917Z,33.40
2019-02-19T12:50:23.009Z,33.60
2019-02-19T12:53:02.793Z,33.90
2019-02-19T12:55:43.707Z,33.90
2019-02-19T12:58:23.932Z,33.80
2019-02-19T13:01:04.344Z,33.80
2019-02-19T13:03:44.213Z,33.40
2019-02-19T13:06:24.602Z,33.20
2019-02-19T13:09:04.832Z,32.90
2019-02-19T13:11:44.661Z,32.90
2019-02-19T13:14:24.654Z,32.80
2019-02-19T13:17:04.704Z,33.10
2019-02-19T13:19:44.918Z,33.20
2019-02-19T13:22:25.060Z,33.30
2019-02-19T13:25:05.812Z,33.50
2019-02-19T13:27:45.559Z,33.50
2019-02-19T13:30:25.719Z,33.60
2019-02-19T13:33:05.913Z,33.70
2019-02-19T13:35:45.925Z,33.20
2019-02-19T13:38:26.165Z,32.80
2019-02-19T13:41:06.181Z,32.60
2019-02-19T13:43:46.371Z,32.10
2019-02-19T13:46:26.596Z,32.20
2019-02-19T13:49:12.325Z,32.00
2019-02-19T13:51:49.233Z,32.00
2019-02-19T13:54:33.524Z,31.90
2019-02-19T13:57:13.171Z,31.90
2019-02-19T13:59:53.384Z,32.00
2019-02-19T14:02:33.432Z,32.00
2019-02-19T14:05:13.656Z,32.40
2019-02-19T14:07:54.165Z,32.70
2019-02-19T14:10:33.935Z,32.80
2019-02-19T14:13:15.109Z,32.80
2019-02-19T14:16:14.862Z,32.70
2019-02-19T14:19:01.305Z,32.70
2019-02-19T14:22:06.244Z,32.70
2019-02-19T14:25:05.567Z,32.60
2019-02-19T14:28:04.690Z,32.30
2019-02-19T14:31:03.945Z,32.50
2019-02-19T14:34:03.184Z,32.60
2019-02-19T14:36:54.350Z,32.90
2019-02-19T14:39:41.506Z,33.00
2019-02-19T14:42:41.541Z,32.90
2019-02-19T14:45:41.203Z,32.80
2019-02-19T14:48:28.297Z,32.50
2019-02-19T14:51:34.804Z,32.20
2019-02-19T14:54:30.339Z,32.20
2019-02-19T14:57:29.393Z,31.90
2019-02-19T15:00:28.456Z,31.70
2019-02-19T15:03:27.721Z,31.30
2019-02-19T15:06:27.035Z,31.00
2019-02-19T15:09:26.313Z,30.70
2019-02-19T15:12:13.541Z,30.40
2019-02-19T15:15:13.007Z,29.80
2019-02-19T15:18:18.177Z,29.50
2019-02-19T15:21:17.210Z,29.20
2019-02-19T15:24:13.622Z,28.80
2019-02-19T15:27:15.503Z,28.50
2019-02-19T15:30:15.004Z,28.20
2019-02-19T15:33:20.151Z,27.90
2019-02-19T15:36:22.857Z,27.40
2019-02-19T15:39:18.376Z,27.20
2019-02-19T15:42:05.904Z,26.80
2019-02-19T15:45:12.417Z,26.60
2019-02-19T15:47:59.425Z,26.30
2019-02-19T15:51:06.758Z,25.80
2019-02-19T15:54:13.170Z,25.60
2019-02-19T15:57:19.603Z,25.40
2019-02-19T16:00:08.659Z,25.10
2019-02-19T16:06:17.589Z,24.70
2019-02-19T16:09:17.051Z,24.50
2019-02-19T16:12:16.146Z,23.90
2019-02-19T16:15:15.353Z,23.90
2019-02-19T16:18:17.312Z,23.30
2019-02-19T16:21:16.706Z,23.10
2019-02-19T16:24:14.201Z,22.60
2019-02-19T16:27:14.310Z,22.00
2019-02-19T16:30:04.531Z,21.60
2019-02-19T16:32:56.808Z,21.00
2019-02-19T16:35:55.858Z,20.40
2019-02-19T16:38:41.825Z,19.80
2019-02-19T16:41:41.272Z,19.30
2019-02-19T16:44:28.406Z,18.70
2019-02-19T16:47:34.842Z,18.20
2019-02-19T16:50:33.883Z,17.60
2019-02-19T16:53:33.129Z,17.30
2019-02-19T16:56:32.420Z,16.70
2019-02-19T16:59:20.980Z,16.40
2019-02-19T17:02:09.248Z,16.20
2019-02-19T17:05:14.404Z,15.60
2019-02-19T17:08:13.748Z,15.40
2019-02-19T17:11:12.895Z,14.90
2019-02-19T17:14:12.183Z,14.60
2019-02-19T17:17:20.554Z,14.40
2019-02-19T17:20:29.541Z,14.00
2019-02-19T17:23:28.541Z,13.50
2019-02-19T17:26:19.484Z,13.60
2019-02-19T17:29:18.996Z,13.40
2019-02-19T17:32:18.139Z,13.20
2019-02-19T17:35:05.223Z,13.00
2019-02-19T17:38:14.667Z,12.90
2019-02-19T17:41:12.642Z,12.80
2019-02-19T17:44:13.009Z,12.70
2019-02-19T17:47:14.420Z,12.60
2019-02-19T17:50:14.221Z,12.60
2019-02-19T17:53:14.912Z,12.30
2019-02-19T17:56:18.562Z,12.20
2019-02-19T17:59:23.760Z,12.10
2019-02-19T18:02:08.352Z,12.00
2019-02-19T18:04:54.304Z,12.10
2019-02-19T18:07:44.511Z,12.00
2019-02-19T18:10:33.748Z,11.90
2019-02-19T18:13:38.781Z,11.80
2019-02-19T18:19:21.045Z,11.80
2019-02-19T18:22:01.247Z,11.80
2019-02-19T18:24:41.262Z,11.70
2019-02-19T18:30:03.263Z,11.60
2019-02-19T18:32:43.739Z,11.30
2019-02-19T18:35:23.873Z,11.40
2019-02-19T18:37:51.908Z,11.30
2019-02-19T18:43:25.864Z,11.10
2019-02-19T18:46:12.908Z,10.80
2019-02-19T18:48:53.558Z,11.00
2019-02-19T18:51:33.545Z,11.20
2019-02-19T18:54:13.642Z,11.00
2019-02-19T18:56:53.901Z,11.10
2019-02-19T18:59:34.005Z,11.00
2019-02-19T19:02:14.316Z,11.20
2019-02-19T19:04:54.431Z,11.10
2019-02-19T19:07:35.049Z,10.80
2019-02-19T19:10:14.716Z,10.40
2019-02-19T19:12:54.944Z,10.40
2019-02-19T19:15:35.195Z,10.20
2019-02-19T19:18:14.772Z,10.20
2019-02-19T19:20:55.013Z,10.30
2019-02-19T19:23:35.480Z,10.50
2019-02-19T19:26:17.224Z,10.70
2019-02-19T19:28:57.639Z,10.60
2019-02-19T19:31:37.593Z,10.50
2019-02-19T19:34:17.580Z,10.40
2019-02-19T19:36:57.625Z,10.50
2019-02-19T19:39:38.010Z,10.50
2019-02-19T19:42:18.109Z,10.40
2019-02-19T19:44:58.185Z,10.30
2019-02-19T19:47:25.968Z,10.40
2019-02-19T19:50:12.997Z,10.50
2019-02-19T19:52:53.694Z,10.50
2019-02-19T19:55:33.641Z,10.50
2019-02-19T19:58:13.816Z,10.30
2019-02-19T20:00:53.963Z,10.40
2019-02-19T20:03:34.039Z,10.30
2019-02-19T20:06:14.303Z,10.20
2019-02-19T20:08:54.172Z,10.50
2019-02-19T20:11:34.317Z,10.40
2019-02-19T20:14:14.645Z,10.50
2019-02-19T20:16:54.479Z,10.30
2019-02-19T20:19:34.801Z,10.30
2019-02-19T20:22:15.725Z,10.30
2019-02-19T20:24:55.597Z,10.20
2019-02-19T20:27:35.946Z,10.20
2019-02-19T20:30:16.034Z,10.10
2019-02-19T20:32:56.231Z,10.10
2019-02-19T20:35:36.508Z,9.90
2019-02-19T20:38:16.678Z,9.90
2019-02-19T20:40:56.697Z,10.00
2019-02-19T20:43:36.765Z,9.80
2019-02-19T20:46:16.801Z,9.70
2019-02-19T20:48:57.145Z,9.70
2019-02-19T20:51:38.486Z,9.50
2019-02-19T20:54:18.558Z,9.60
2019-02-19T20:56:58.846Z,9.80
2019-02-19T20:59:39.782Z,9.80
2019-02-19T21:02:19.942Z,9.70
2019-02-19T21:05:00.289Z,9.50
2019-02-19T21:07:40.046Z,9.60
2019-02-19T21:10:20.199Z,9.60
2019-02-19T21:13:01.125Z,9.60
2019-02-19T21:15:41.874Z,9.70
2019-02-19T21:18:22.063Z,9.60
2019-02-19T21:21:01.872Z,9.40
2019-02-19T21:23:42.352Z,9.50
2019-02-19T21:26:22.290Z,9.40
2019-02-19T21:32:01.538Z,9.60
2019-02-19T21:34:42.085Z,9.50
2019-02-19T21:37:12.005Z,9.50
2019-02-19T21:39:59.171Z,9.50
2019-02-19T21:42:39.248Z,9.30
2019-02-19T21:45:19.298Z,9.30
2019-02-19T21:47:59.545Z,9.40
2019-02-19T21:50:39.642Z,9.30
2019-02-19T21:53:19.665Z,9.50
2019-02-19T21:55:59.677Z,9.50
2019-02-19T21:58:39.743Z,9.60
2019-02-19T22:01:19.886Z,9.50
2019-02-19T22:04:01.162Z,9.40
2019-02-19T22:09:54.130Z,9.40
2019-02-19T22:12:22.591Z,9.40
2019-02-19T22:15:09.939Z,9.20
2019-02-19T22:20:56.270Z,9.40
2019-02-19T22:23:36.067Z,9.80
2019-02-19T22:26:16.151Z,9.70
2019-02-19T22:28:58.131Z,9.30
2019-02-19T22:31:38.502Z,9.30
2019-02-19T22:34:18.555Z,9.40
2019-02-19T22:36:58.659Z,9.40
2019-02-19T22:39:38.712Z,9.60
2019-02-19T22:42:18.921Z,9.30
2019-02-19T22:44:59.021Z,9.30
2019-02-19T22:47:39.128Z,9.40
2019-02-19T22:50:19.280Z,9.50
2019-02-19T22:52:59.952Z,9.10
2019-02-19T22:55:59.134Z,9.20
2019-02-19T22:58:39.043Z,9.00
2019-02-19T23:01:25.135Z,8.80
2019-02-19T23:04:05.282Z,9.00
2019-02-19T23:06:45.198Z,9.00
2019-02-19T23:09:25.460Z,9.00
2019-02-19T23:12:05.763Z,9.10
2019-02-19T23:14:45.855Z,9.10
2019-02-19T23:20:08.126Z,8.70
2019-02-19T23:22:47.895Z,8.90
2019-02-19T23:25:28.121Z,8.70
2019-02-19T23:28:08.331Z,8.70
2019-02-19T23:30:48.481Z,8.70
2019-02-19T23:33:28.740Z,8.70
2019-02-19T23:36:16.537Z,8.80
2019-02-19T23:38:44.288Z,8.70
2019-02-19T23:41:31.393Z,8.90
2019-02-19T23:44:18.424Z,9.00
2019-02-19T23:47:05.504Z,9.10
2019-02-19T23:49:45.413Z,8.80
2019-02-19T23:52:30.487Z,8.90
2019-02-19T23:55:07.879Z,8.90
2019-02-19T23:57:47.943Z,8.70
